createdAt,value
2023-02-04T14:58:21.582Z,19.25
2023-02-04T15:00:47.912Z,19.13
2023-02-04T15:03:14.276Z,19.06
2023-02-04T15:05:40.557Z,19.00
2023-02-04T15:08:06.967Z,18.95
2023-02-04T15:10:33.656Z,18.92
2023-02-04T15:13:00.370Z,18.90
2023-02-04T15:15:26.843Z,18.94
2023-02-04T15:17:53.242Z,19.03
2023-02-04T15:20:19.609Z,19.14
2023-02-04T15:22:45.911Z,19.15
2023-02-04T15:45:28.661Z,13.00
2023-02-04T15:47:55.069Z,11.40
2023-02-04T15:50:21.343Z,10.50
2023-02-04T15:52:47.702Z,9.77
2023-02-04T15:55:14.204Z,9.26
2023-02-04T15:57:40.496Z,8.88
2023-02-04T16:00:07.492Z,8.57
2023-02-04T16:02:33.854Z,8.36
2023-02-04T16:05:00.269Z,8.23
2023-02-04T16:07:29.027Z,8.14
2023-02-04T16:09:55.318Z,8.04
2023-02-04T16:12:21.582Z,7.94
2023-02-04T16:14:47.833Z,7.92
2023-02-04T16:17:14.151Z,7.95
2023-02-04T16:19:40.486Z,7.99
2023-02-04T16:22:07.165Z,7.98
2023-02-04T16:24:33.855Z,7.94
2023-02-04T16:27:00.228Z,7.91
2023-02-04T16:29:26.792Z,7.91
2023-02-04T16:31:53.939Z,7.92
2023-02-04T16:34:20.218Z,7.85
2023-02-04T16:36:46.553Z,7.75
2023-02-04T16:39:12.964Z,7.66
2023-02-04T16:41:39.304Z,7.55
2023-02-04T16:44:05.589Z,7.61
2023-02-04T16:46:33.613Z,7.67
2023-02-04T16:49:01.290Z,7.70
2023-02-04T16:51:28.421Z,7.73
2023-02-04T16:53:54.817Z,7.69
2023-02-04T16:56:21.295Z,7.68
2023-02-04T16:58:48.291Z,7.61
2023-02-04T17:01:16.982Z,7.54
2023-02-04T17:03:44.446Z,7.41
2023-02-04T17:06:10.810Z,7.22
2023-02-04T17:08:37.068Z,6.99
2023-02-04T17:11:22.110Z,6.78
2023-02-04T17:13:48.475Z,6.79
2023-02-04T17:16:14.835Z,6.80
2023-02-04T17:18:41.185Z,6.86
2023-02-04T17:21:07.610Z,6.99
2023-02-04T17:23:35.285Z,6.99
2023-02-04T17:26:01.583Z,6.98
2023-02-04T17:28:27.884Z,6.89
2023-02-04T17:30:54.315Z,6.86
2023-02-04T17:33:20.702Z,6.87
2023-02-04T17:35:47.028Z,6.91
2023-02-04T17:38:13.411Z,6.81
2023-02-04T17:40:39.693Z,6.84
2023-02-04T17:43:07.410Z,6.80
2023-02-04T17:45:34.194Z,6.77
2023-02-04T17:48:00.673Z,6.73
2023-02-04T17:50:27.173Z,6.68
2023-02-04T17:52:53.457Z,6.72
2023-02-04T17:55:28.853Z,6.63
2023-02-04T17:57:59.500Z,6.64
2023-02-04T18:00:30.692Z,6.60
2023-02-04T18:02:57.239Z,6.64
2023-02-04T18:05:26.247Z,6.51
2023-02-04T18:07:58.936Z,6.46
2023-02-04T18:10:37.564Z,6.43
2023-02-04T18:13:13.801Z,6.37
2023-02-04T18:15:41.029Z,6.38
2023-02-04T18:18:20.922Z,6.35
2023-02-04T18:20:50.849Z,6.19
2023-02-04T18:23:18.935Z,6.03
2023-02-04T18:25:48.350Z,5.96
2023-02-04T18:28:18.089Z,5.96
2023-02-04T18:30:45.521Z,5.96
2023-02-04T18:33:19.049Z,6.04
2023-02-04T18:35:48.184Z,6.11
2023-02-04T18:38:27.868Z,6.15
2023-02-04T18:41:17.791Z,6.16
2023-02-04T18:43:50.370Z,6.20
2023-02-04T18:46:23.765Z,6.12
2023-02-04T18:49:29.428Z,6.08
2023-02-04T18:51:57.780Z,6.00
2023-02-04T18:54:33.020Z,6.00
2023-02-04T18:57:16.047Z,5.92
2023-02-04T18:59:42.508Z,6.01
2023-02-04T19:02:27.675Z,6.01
2023-02-04T19:05:12.001Z,5.88
2023-02-04T19:07:38.975Z,5.79
2023-02-04T19:10:26.916Z,5.59
2023-02-04T19:12:53.682Z,5.45
2023-02-04T19:15:39.453Z,5.28
2023-02-04T19:18:26.077Z,5.18
2023-02-04T19:20:52.631Z,5.19
2023-02-04T19:23:23.356Z,5.20
2023-02-04T19:25:51.857Z,5.25
2023-02-04T19:28:29.986Z,5.25
2023-02-04T19:31:03.184Z,5.31
2023-02-04T19:33:33.570Z,5.28
2023-02-04T19:36:30.242Z,5.38
2023-02-04T19:38:59.940Z,5.41
2023-02-04T19:41:27.074Z,5.44
2023-02-04T19:44:34.961Z,5.42
2023-02-04T19:47:29.611Z,5.39
2023-02-04T19:50:13.990Z,5.33
2023-02-04T19:52:47.334Z,5.37
2023-02-04T19:55:16.589Z,5.35
2023-02-04T19:57:45.285Z,5.33
2023-02-04T20:00:38.649Z,5.41
2023-02-04T20:03:37.313Z,5.34
2023-02-04T20:06:09.588Z,5.22
2023-02-04T20:08:44.910Z,5.14
2023-02-04T20:11:32.796Z,5.07
2023-02-04T20:14:14.349Z,4.97
2023-02-04T20:16:49.861Z,4.87
2023-02-04T20:19:32.637Z,4.74
2023-02-04T20:22:17.132Z,4.81
2023-02-04T20:24:53.421Z,4.84
2023-02-04T20:27:24.276Z,4.86
2023-02-04T20:29:59.063Z,4.87
2023-02-04T20:32:27.064Z,4.80
2023-02-04T20:35:07.545Z,4.68
2023-02-04T20:37:34.246Z,4.70
2023-02-04T20:40:01.173Z,4.82
2023-02-04T20:42:32.173Z,4.80
2023-02-04T20:45:11.265Z,4.88
2023-02-04T20:47:37.802Z,4.78
2023-02-04T20:50:38.470Z,4.58
2023-02-04T20:53:21.591Z,4.38
2023-02-04T20:55:53.904Z,4.19
2023-02-04T20:58:26.872Z,4.13
2023-02-04T21:00:55.812Z,4.10
2023-02-04T21:03:28.229Z,4.16
2023-02-04T21:05:57.767Z,4.19
2023-02-04T21:08:27.826Z,4.26
2023-02-04T21:10:54.445Z,4.23
2023-02-04T21:13:20.845Z,4.19
2023-02-04T21:15:47.797Z,4.25
2023-02-04T21:18:14.177Z,4.24
2023-02-04T21:20:40.751Z,4.15
2023-02-04T21:23:07.143Z,4.01
2023-02-04T21:25:33.776Z,3.87
2023-02-04T21:28:00.559Z,3.77
2023-02-04T21:30:30.132Z,3.71
2023-02-04T21:32:57.567Z,3.81
2023-02-04T21:35:26.831Z,3.67
2023-02-04T21:37:54.501Z,3.50
2023-02-04T21:40:21.878Z,3.53
2023-02-04T21:42:49.248Z,3.49
2023-02-04T21:45:20.464Z,3.37
2023-02-04T21:47:47.536Z,3.32
2023-02-04T21:50:15.575Z,3.18
2023-02-04T21:52:43.100Z,3.08
2023-02-04T21:55:11.010Z,3.04
2023-02-04T21:57:37.718Z,3.02
2023-02-04T22:00:06.410Z,2.98
2023-02-04T22:02:32.705Z,2.94
2023-02-04T22:04:59.147Z,2.88
2023-02-04T22:07:25.661Z,2.92
2023-02-04T22:09:51.988Z,2.97
2023-02-04T22:12:19.039Z,3.06
2023-02-04T22:14:45.770Z,3.18
2023-02-04T22:17:12.099Z,3.19
2023-02-04T22:19:38.391Z,3.39
2023-02-04T22:22:04.684Z,3.40
2023-02-04T22:24:31.034Z,3.51
2023-02-04T22:26:57.649Z,3.55
2023-02-04T22:29:28.568Z,3.55
2023-02-04T22:31:54.985Z,3.55
2023-02-04T22:34:22.089Z,3.53
2023-02-04T22:36:48.714Z,3.49
2023-02-04T22:39:14.990Z,3.40
2023-02-04T22:41:41.289Z,3.30
2023-02-04T22:44:07.585Z,3.40
2023-02-04T22:46:33.958Z,3.38
2023-02-04T22:49:00.647Z,3.35
2023-02-04T22:51:27.206Z,3.22
2023-02-04T22:53:53.555Z,3.10
2023-02-04T22:56:21.359Z,3.02
2023-02-04T22:58:47.609Z,3.09
2023-02-04T23:01:13.996Z,3.13
2023-02-04T23:03:40.465Z,3.13
2023-02-04T23:06:07.011Z,2.97
2023-02-04T23:08:33.375Z,2.85
2023-02-04T23:10:59.658Z,2.77
2023-02-04T23:13:26.119Z,2.73
2023-02-04T23:15:52.434Z,2.84
2023-02-04T23:18:18.766Z,2.77
2023-02-04T23:20:45.272Z,2.58
2023-02-04T23:23:17.335Z,2.41
2023-02-04T23:25:45.922Z,2.42
2023-02-04T23:28:12.608Z,2.27
2023-02-04T23:30:39.148Z,2.11
2023-02-04T23:33:05.724Z,2.10
2023-02-04T23:35:32.947Z,2.02
2023-02-04T23:37:59.518Z,2.02
2023-02-04T23:40:25.811Z,1.88
2023-02-04T23:42:52.054Z,1.85
2023-02-04T23:45:18.345Z,1.72
2023-02-04T23:47:44.674Z,1.60
2023-02-04T23:50:11.128Z,1.54
2023-02-04T23:52:37.413Z,1.41
2023-02-04T23:55:04.832Z,1.29
2023-02-04T23:57:31.325Z,1.20
2023-02-04T23:59:57.754Z,1.14
